createdAt,value
2019-04-21T00:00:35.526Z,14.42
2019-04-21T00:01:38.757Z,14.39
2019-04-21T00:02:37.744Z,14.24
2019-04-21T00:03:40.772Z,14.23
2019-04-21T00:04:48.446Z,14.12
2019-04-21T00:05:52.402Z,14.17
2019-04-21T00:06:56.971Z,14.12
2019-04-21T00:07:52.808Z,14.06
2019-04-21T00:08:56.474Z,13.94
2019-04-21T00:10:16.731Z,13.99
2019-04-21T00:10:56.713Z,13.96
2019-04-21T00:11:55.706Z,13.94
2019-04-21T00:12:53.337Z,13.94
2019-04-21T00:13:46.992Z,13.98
2019-04-21T00:14:46.073Z,13.91
2019-04-21T00:15:40.799Z,13.96
2019-04-21T00:16:43.223Z,13.81
2019-04-21T00:17:34.740Z,13.75
2019-04-21T00:18:41.778Z,13.73
2019-04-21T00:19:36.703Z,13.65
2019-04-21T00:20:40.910Z,13.65
2019-04-21T00:21:40.435Z,13.47
2019-04-21T00:22:45.487Z,13.48
2019-04-21T00:23:49.938Z,13.47
2019-04-21T00:24:46.218Z,13.31
2019-04-21T00:25:46.017Z,13.36
2019-04-21T00:26:50.808Z,13.31
2019-04-21T00:27:47.816Z,13.32
2019-04-21T00:29:02.276Z,13.36
2019-04-21T00:29:49.870Z,13.16
2019-04-21T00:30:50.927Z,12.98
2019-04-21T00:31:45.837Z,13.06
2019-04-21T00:32:46.040Z,13.09
2019-04-21T00:33:35.624Z,12.98
2019-04-21T00:34:32.141Z,12.96
2019-04-21T00:35:42.595Z,12.95
2019-04-21T00:36:42.850Z,12.96
2019-04-21T00:37:53.412Z,12.87
2019-04-21T00:39:00.411Z,12.85
2019-04-21T00:40:53.872Z,12.88
2019-04-21T00:41:53.736Z,12.66
2019-04-21T00:42:48.905Z,12.73
2019-04-21T00:43:44.764Z,12.74
2019-04-21T00:44:44.288Z,12.61
2019-04-21T00:45:41.809Z,12.58
2019-04-21T00:46:44.882Z,12.62
2019-04-21T00:47:46.308Z,12.55
2019-04-21T00:48:54.037Z,12.56
2019-04-21T00:49:52.715Z,12.46
2019-04-21T00:51:03.359Z,12.43
2019-04-21T00:52:17.519Z,12.43
2019-04-21T00:52:58.233Z,12.37
2019-04-21T00:53:51.149Z,12.38
2019-04-21T00:54:57.816Z,12.40
2019-04-21T00:55:53.443Z,12.30
2019-04-21T00:56:56.959Z,12.33
2019-04-21T00:58:56.085Z,12.38
2019-04-21T00:59:52.583Z,12.34
2019-04-21T01:00:51.128Z,12.31
2019-04-21T01:01:47.718Z,12.33
2019-04-21T01:03:55.120Z,12.19
2019-04-21T01:04:49.510Z,12.29
2019-04-21T01:05:52.864Z,12.13
2019-04-21T01:06:55.645Z,12.21
2019-04-21T01:07:46.990Z,12.19
2019-04-21T01:08:46.785Z,12.19
2019-04-21T01:09:45.330Z,12.19
2019-04-21T01:10:38.354Z,12.23
2019-04-21T01:11:51.462Z,12.26
2019-04-21T01:12:49.563Z,12.30
2019-04-21T01:13:51.749Z,12.34
2019-04-21T01:14:58.250Z,12.34
2019-04-21T01:16:56.051Z,12.12
2019-04-21T01:17:53.259Z,12.16
2019-04-21T01:18:51.871Z,12.16
2019-04-21T01:19:46.888Z,12.16
2019-04-21T01:20:27.576Z,12.16
2019-04-21T01:21:27.487Z,12.16
2019-04-21T01:22:27.450Z,12.13
2019-04-21T01:23:27.586Z,12.13
2019-04-21T01:24:33.061Z,12.04
2019-04-21T01:25:32.127Z,11.97
2019-04-21T01:26:39.320Z,11.98
2019-04-21T01:27:50.768Z,11.96
2019-04-21T01:28:44.838Z,11.96
2019-04-21T01:29:46.018Z,11.82
2019-04-21T01:30:45.143Z,11.85
2019-04-21T01:31:42.125Z,11.84
2019-04-21T01:32:48.174Z,11.69
2019-04-21T01:33:50.674Z,11.72
2019-04-21T01:34:45.422Z,11.60
2019-04-21T01:35:50.982Z,11.54
2019-04-21T01:36:45.797Z,11.49
2019-04-21T01:37:52.455Z,11.51
2019-04-21T01:38:48.304Z,11.48
2019-04-21T01:39:46.957Z,11.33
2019-04-21T01:40:45.050Z,11.26
2019-04-21T01:41:52.549Z,11.30
2019-04-21T01:42:49.425Z,11.27
2019-04-21T01:43:45.142Z,11.24
2019-04-21T01:44:46.206Z,11.23
2019-04-21T01:45:44.841Z,11.20
2019-04-21T01:46:42.251Z,11.27
2019-04-21T01:47:40.890Z,11.26
2019-04-21T01:48:40.017Z,11.30
2019-04-21T01:49:37.071Z,11.33
2019-04-21T01:50:40.908Z,11.36
2019-04-21T01:51:59.679Z,11.41
2019-04-21T01:52:50.236Z,11.35
2019-04-21T01:53:48.314Z,11.33
2019-04-21T01:54:48.112Z,11.31
2019-04-21T01:55:43.134Z,11.27
2019-04-21T01:56:46.557Z,11.17
2019-04-21T01:57:42.639Z,11.30
2019-04-21T01:58:36.317Z,11.21
2019-04-21T01:59:34.958Z,11.28
2019-04-21T02:00:39.020Z,11.24
2019-04-21T02:01:46.035Z,11.17
2019-04-21T02:02:47.698Z,11.12
2019-04-21T02:04:47.429Z,11.23
2019-04-21T02:05:56.991Z,11.33
2019-04-21T02:06:45.613Z,11.17
2019-04-21T02:07:47.448Z,11.24
2019-04-21T02:08:41.828Z,11.20
2019-04-21T02:09:42.003Z,11.26
2019-04-21T02:10:47.972Z,11.41
2019-04-21T02:11:53.354Z,11.48
2019-04-21T02:12:48.819Z,11.45
2019-04-21T02:13:50.209Z,11.45
2019-04-21T02:14:54.417Z,11.48
2019-04-21T02:15:48.935Z,11.57
2019-04-21T02:16:43.424Z,11.56
2019-04-21T02:17:45.896Z,11.62
2019-04-21T02:18:39.097Z,11.62
2019-04-21T02:19:37.824Z,11.64
2019-04-21T02:20:34.190Z,11.54
2019-04-21T02:21:38.288Z,11.53
2019-04-21T02:22:57.499Z,11.53
2019-04-21T02:23:50.925Z,11.57
2019-04-21T02:24:53.372Z,11.57
2019-04-21T02:25:44.193Z,11.49
2019-04-21T02:26:41.527Z,11.48
2019-04-21T02:27:42.874Z,11.45
2019-04-21T02:28:54.267Z,11.45
2019-04-21T02:29:49.761Z,11.42
2019-04-21T02:31:03.006Z,11.48
2019-04-21T02:32:00.360Z,11.41
2019-04-21T02:35:04.209Z,11.41
2019-04-21T02:39:00.271Z,11.36
2019-04-21T02:40:01.542Z,11.38
2019-04-21T02:42:01.747Z,11.36
2019-04-21T02:43:02.743Z,11.26
2019-04-21T02:43:56.083Z,11.30
2019-04-21T02:44:51.698Z,11.20
2019-04-21T02:46:54.261Z,11.21
2019-04-21T02:47:59.105Z,11.20
2019-04-21T02:48:56.440Z,11.26
2019-04-21T02:50:01.944Z,11.21
2019-04-21T02:51:04.750Z,11.24
2019-04-21T02:51:54.885Z,11.20
2019-04-21T02:54:28.787Z,11.23
2019-04-21T02:54:54.042Z,11.24
2019-04-21T02:55:51.220Z,11.23
2019-04-21T02:56:53.429Z,11.20
2019-04-21T02:57:49.795Z,11.27
2019-04-21T02:58:51.197Z,11.26
2019-04-21T03:00:06.894Z,11.20
2019-04-21T03:00:59.670Z,11.17
2019-04-21T03:02:04.494Z,11.23
2019-04-21T03:02:55.380Z,11.20
2019-04-21T03:04:53.364Z,11.21
2019-04-21T03:05:52.982Z,11.28
2019-04-21T03:06:56.363Z,11.24
2019-04-21T03:07:55.457Z,11.16
2019-04-21T03:09:45.936Z,11.12
2019-04-21T03:10:56.778Z,11.03
2019-04-21T03:12:01.508Z,11.06
2019-04-21T03:12:44.117Z,11.02
2019-04-21T03:14:58.183Z,11.03
2019-04-21T03:16:04.978Z,11.03
2019-04-21T03:16:40.577Z,10.99
2019-04-21T03:17:48.717Z,11.03
2019-04-21T03:18:52.502Z,11.12
2019-04-21T03:19:51.945Z,11.03
2019-04-21T03:20:53.252Z,11.09
2019-04-21T03:21:50.599Z,11.05
2019-04-21T03:23:16.634Z,11.09
2019-04-21T03:25:04.545Z,11.23
2019-04-21T03:29:08.375Z,11.24
2019-04-21T03:35:25.944Z,11.20
2019-04-21T03:36:24.603Z,11.21
2019-04-21T03:37:42.511Z,11.23
2019-04-21T03:38:43.137Z,11.21
2019-04-21T03:39:52.779Z,11.20
2019-04-21T03:40:40.959Z,11.24
2019-04-21T03:42:01.886Z,11.20
2019-04-21T03:43:52.632Z,11.11
2019-04-21T03:44:45.313Z,11.06
2019-04-21T03:46:47.524Z,10.94
2019-04-21T03:47:43.514Z,10.98
2019-04-21T03:48:51.692Z,10.94
2019-04-21T03:49:56.434Z,10.78
2019-04-21T03:50:56.317Z,10.70
2019-04-21T03:51:50.530Z,10.75
2019-04-21T03:52:58.895Z,10.76
2019-04-21T03:54:53.789Z,10.62
2019-04-21T03:56:59.200Z,10.55
2019-04-21T03:58:05.518Z,10.55
2019-04-21T03:59:48.897Z,10.38
2019-04-21T04:01:52.425Z,10.35
2019-04-21T04:02:55.238Z,10.36
2019-04-21T04:04:49.876Z,10.36
2019-04-21T04:05:59.659Z,10.38
2019-04-21T04:06:58.765Z,10.42
2019-04-21T04:07:49.949Z,10.32
2019-04-21T04:08:49.995Z,10.36
2019-04-21T04:09:44.757Z,10.31
2019-04-21T04:10:50.371Z,10.34
2019-04-21T04:11:44.187Z,10.34
2019-04-21T04:12:48.413Z,10.34
2019-04-21T04:13:56.313Z,10.46
2019-04-21T04:16:47.723Z,10.62
2019-04-21T04:17:40.460Z,10.55
2019-04-21T04:21:03.606Z,10.66
2019-04-21T04:21:47.756Z,10.86
2019-04-21T04:22:48.171Z,10.86
2019-04-21T04:23:45.622Z,10.98
2019-04-21T04:25:43.025Z,10.91
2019-04-21T04:27:01.519Z,10.94
2019-04-21T04:28:46.009Z,11.12
2019-04-21T04:29:39.929Z,11.03
2019-04-21T04:30:45.422Z,11.11
2019-04-21T04:31:53.454Z,11.11
2019-04-21T04:33:51.876Z,10.94
2019-04-21T04:35:52.541Z,10.84
2019-04-21T04:37:47.058Z,10.72
2019-04-21T04:38:50.146Z,10.88
2019-04-21T04:39:51.680Z,10.93
2019-04-21T04:40:39.298Z,11.03
2019-04-21T04:41:54.998Z,11.12
2019-04-21T04:42:46.228Z,11.06
2019-04-21T04:43:46.161Z,11.11
2019-04-21T04:45:44.193Z,11.16
2019-04-21T04:46:44.182Z,11.19
2019-04-21T04:47:47.055Z,11.28
2019-04-21T04:48:43.411Z,11.20
2019-04-21T04:52:09.415Z,11.24
2019-04-21T04:52:37.824Z,11.23
2019-04-21T04:55:39.302Z,11.21
2019-04-21T04:56:38.936Z,11.16
2019-04-21T04:57:51.268Z,11.17
2019-04-21T04:59:10.752Z,11.23
2019-04-21T05:00:01.176Z,11.26
2019-04-21T05:01:47.865Z,11.26
2019-04-21T05:02:46.331Z,11.20
2019-04-21T05:04:46.010Z,11.21
2019-04-21T05:05:45.110Z,11.23
2019-04-21T05:07:42.887Z,11.30
2019-04-21T05:08:52.453Z,11.35
2019-04-21T05:09:44.675Z,11.28
2019-04-21T05:10:52.888Z,11.38
2019-04-21T05:11:44.492Z,11.39
2019-04-21T05:13:43.520Z,11.44
2019-04-21T05:14:39.268Z,11.51
2019-04-21T05:15:37.726Z,11.46
2019-04-21T05:18:50.349Z,11.51
2019-04-21T05:19:34.726Z,11.54
2019-04-21T05:20:29.811Z,11.59
2019-04-21T05:22:37.501Z,11.66
2019-04-21T05:23:31.597Z,11.62
2019-04-21T05:24:25.571Z,11.69
2019-04-21T05:25:23.693Z,11.67
2019-04-21T05:26:22.010Z,11.66
2019-04-21T05:27:23.509Z,11.69
2019-04-21T05:28:19.832Z,11.72
2019-04-21T05:29:21.016Z,11.77
2019-04-21T05:31:33.044Z,11.82
2019-04-21T05:32:36.207Z,11.85
2019-04-21T05:33:32.175Z,11.96
2019-04-21T05:34:27.325Z,11.88
2019-04-21T05:35:26.360Z,11.98
2019-04-21T05:36:27.823Z,11.96
2019-04-21T05:37:25.927Z,12.08
2019-04-21T05:38:22.295Z,12.13
2019-04-21T05:39:23.395Z,12.19
2019-04-21T05:40:24.781Z,12.21
2019-04-21T05:41:18.428Z,12.21
2019-04-21T05:42:22.246Z,12.29
2019-04-21T05:43:28.419Z,12.25
2019-04-21T05:44:36.206Z,12.43
2019-04-21T05:45:38.192Z,12.49
2019-04-21T05:46:25.504Z,12.61
2019-04-21T05:47:35.404Z,12.74
2019-04-21T05:48:31.677Z,12.67
2019-04-21T05:49:22.251Z,12.80
2019-04-21T05:50:23.867Z,12.84
2019-04-21T05:51:28.732Z,12.96
2019-04-21T05:52:24.068Z,12.87
2019-04-21T05:53:34.372Z,13.06
2019-04-21T05:54:31.122Z,13.19
2019-04-21T05:55:34.206Z,13.46
2019-04-21T05:56:32.589Z,13.47
2019-04-21T05:57:25.405Z,13.43
2019-04-21T05:58:27.248Z,13.57
2019-04-21T05:59:26.252Z,13.72
2019-04-21T06:00:39.380Z,13.79
2019-04-21T06:01:36.020Z,13.88
2019-04-21T06:02:46.476Z,13.93
2019-04-21T06:03:43.080Z,13.93
2019-04-21T06:04:45.060Z,14.06
2019-04-21T06:06:34.190Z,14.21
2019-04-21T06:07:28.817Z,14.26
2019-04-21T06:08:28.649Z,14.38
2019-04-21T06:09:27.418Z,14.46
2019-04-21T06:10:31.459Z,14.64
2019-04-21T06:11:25.897Z,14.66
2019-04-21T06:12:31.591Z,14.72
2019-04-21T06:13:48.218Z,14.82
2019-04-21T06:14:30.486Z,14.90
2019-04-21T06:15:30.199Z,14.95
2019-04-21T06:16:31.865Z,15.22
2019-04-21T06:17:29.791Z,15.33
2019-04-21T06:18:22.395Z,15.46
2019-04-21T06:19:30.966Z,15.23
2019-04-21T06:20:27.093Z,15.33
2019-04-21T06:21:38.554Z,15.40
2019-04-21T06:22:36.033Z,15.46
2019-04-21T06:23:24.151Z,15.66
2019-04-21T06:24:21.539Z,15.60
2019-04-21T06:27:28.013Z,15.76
2019-04-21T06:28:28.270Z,15.74
2019-04-21T06:29:23.480Z,15.81
2019-04-21T06:30:29.003Z,15.77
2019-04-21T06:32:38.151Z,16.01
2019-04-21T06:33:32.245Z,15.95
2019-04-21T06:34:24.772Z,16.16
2019-04-21T06:35:35.993Z,16.22
2019-04-21T06:36:36.344Z,16.34
2019-04-21T06:37:39.714Z,16.45
2019-04-21T06:38:38.050Z,16.44
2019-04-21T06:39:22.998Z,16.36
2019-04-21T06:40:30.895Z,16.37
2019-04-21T06:42:23.924Z,16.57
2019-04-21T06:44:22.684Z,16.75
2019-04-21T06:45:31.325Z,16.54
2019-04-21T06:46:33.576Z,16.80
2019-04-21T06:47:32.442Z,16.85
2019-04-21T06:48:30.507Z,16.98
2019-04-21T06:49:23.911Z,17.02
2019-04-21T06:50:27.114Z,17.05
2019-04-21T06:51:27.950Z,17.10
2019-04-21T06:52:44.689Z,17.14
2019-04-21T06:53:36.231Z,17.38
2019-04-21T06:54:23.393Z,17.25
2019-04-21T06:56:20.501Z,17.60
2019-04-21T06:57:23.170Z,17.49
2019-04-21T06:58:22.440Z,17.66
2019-04-21T06:59:25.271Z,17.81
2019-04-21T07:00:19.530Z,17.94
2019-04-21T07:01:25.134Z,18.05
2019-04-21T07:02:39.908Z,18.19
2019-04-21T07:06:23.925Z,18.78
2019-04-21T07:07:26.389Z,18.89
2019-04-21T07:08:30.823Z,19.06
2019-04-21T07:10:22.771Z,19.15
2019-04-21T07:11:19.907Z,19.20
2019-04-21T07:12:19.160Z,19.21
2019-04-21T07:13:15.594Z,18.82
2019-04-21T07:14:37.974Z,18.87
2019-04-21T07:15:25.369Z,19.02
2019-04-21T07:16:25.443Z,19.09
2019-04-21T07:17:24.661Z,19.16
2019-04-21T07:18:25.310Z,19.32
2019-04-21T07:20:17.335Z,19.39
2019-04-21T07:21:23.532Z,19.47
2019-04-21T07:22:24.488Z,19.24
2019-04-21T07:23:24.045Z,19.16
2019-04-21T07:24:26.039Z,19.53
2019-04-21T07:25:23.876Z,19.62
2019-04-21T07:26:22.239Z,19.68
2019-04-21T07:27:22.228Z,19.76
2019-04-21T07:28:21.962Z,20.07
2019-04-21T07:29:21.957Z,20.27
2019-04-21T07:30:24.331Z,20.46
2019-04-21T07:31:19.001Z,20.66
2019-04-21T07:32:19.037Z,20.81
2019-04-21T07:33:41.522Z,20.97
2019-04-21T07:34:36.248Z,20.76
2019-04-21T07:35:28.118Z,20.93
2019-04-21T07:36:21.848Z,20.83
2019-04-21T07:37:17.367Z,20.96
2019-04-21T07:38:17.981Z,21.26
2019-04-21T07:39:18.519Z,21.30
2019-04-21T07:40:14.950Z,20.98
2019-04-21T07:41:09.670Z,21.08
2019-04-21T07:42:13.745Z,20.83
2019-04-21T07:43:10.777Z,20.98
2019-04-21T07:44:14.983Z,21.09
2019-04-21T07:45:13.088Z,20.68
2019-04-21T07:46:10.689Z,20.60
2019-04-21T07:47:17.079Z,20.44
2019-04-21T07:48:19.253Z,20.50
2019-04-21T07:49:12.456Z,20.68
2019-04-21T07:50:14.788Z,21.00
2019-04-21T07:51:18.874Z,20.97
2019-04-21T07:52:18.755Z,21.28
2019-04-21T07:53:21.854Z,21.64
2019-04-21T07:54:23.272Z,21.94
2019-04-21T07:56:06.511Z,22.17
2019-04-21T07:57:21.331Z,22.15
2019-04-21T07:58:17.823Z,22.27
2019-04-21T07:59:23.897Z,22.48
2019-04-21T08:01:19.933Z,22.70
2019-04-21T08:03:16.139Z,23.12
2019-04-21T08:04:33.177Z,23.45
2019-04-21T08:06:20.667Z,23.62
2019-04-21T08:07:26.514Z,23.68
2019-04-21T08:08:14.322Z,23.79
2019-04-21T08:09:13.650Z,23.87
2019-04-21T08:10:10.467Z,23.89
2019-04-21T08:11:10.885Z,24.02
2019-04-21T08:12:09.539Z,23.99
2019-04-21T08:13:27.347Z,23.99
2019-04-21T08:14:18.144Z,24.02
2019-04-21T08:15:24.957Z,24.12
2019-04-21T08:16:17.416Z,24.24
2019-04-21T08:17:14.757Z,24.34
2019-04-21T08:18:16.660Z,24.59
2019-04-21T08:19:13.091Z,24.56
2019-04-21T08:20:13.789Z,24.71
2019-04-21T08:21:17.820Z,24.46
2019-04-21T08:22:15.536Z,24.41
2019-04-21T08:23:13.270Z,24.33
2019-04-21T08:24:18.233Z,24.41
2019-04-21T08:25:18.244Z,24.37
2019-04-21T08:26:30.813Z,24.55
2019-04-21T08:27:18.880Z,24.60
2019-04-21T08:28:09.074Z,24.71
2019-04-21T08:29:21.456Z,24.82
2019-04-21T08:30:11.522Z,24.92
2019-04-21T08:31:18.422Z,25.08
2019-04-21T08:32:17.541Z,25.12
2019-04-21T08:33:26.246Z,25.23
2019-04-21T08:34:17.841Z,25.19
2019-04-21T08:35:38.427Z,25.26
2019-04-21T08:36:18.530Z,25.42
2019-04-21T08:37:11.990Z,25.44
2019-04-21T08:38:16.510Z,25.54
2019-04-21T08:39:14.020Z,25.51
2019-04-21T08:40:17.699Z,25.45
2019-04-21T08:41:15.211Z,25.54
2019-04-21T08:42:13.206Z,25.66
2019-04-21T08:43:09.227Z,25.66
2019-04-21T08:44:10.651Z,25.74
2019-04-21T08:45:15.057Z,25.91
2019-04-21T08:46:13.735Z,25.79
2019-04-21T08:47:12.854Z,25.76
2019-04-21T08:48:12.149Z,25.86
2019-04-21T08:49:08.117Z,25.94
2019-04-21T08:50:11.245Z,26.12
2019-04-21T08:51:24.515Z,26.11
2019-04-21T08:52:23.289Z,25.96
2019-04-21T08:53:19.840Z,26.11
2019-04-21T08:54:17.015Z,26.19
2019-04-21T08:55:12.232Z,26.24
2019-04-21T08:56:34.204Z,26.19
2019-04-21T08:57:16.693Z,26.23
2019-04-21T08:58:22.643Z,26.31
2019-04-21T09:00:16.799Z,26.51
2019-04-21T09:01:17.785Z,26.68
2019-04-21T09:02:08.430Z,26.68
2019-04-21T09:03:14.617Z,26.65
2019-04-21T09:04:19.877Z,26.49
2019-04-21T09:05:11.600Z,26.36
2019-04-21T09:06:19.027Z,26.34
2019-04-21T09:07:12.951Z,26.27
2019-04-21T09:08:10.572Z,26.35
2019-04-21T09:09:14.365Z,26.34
2019-04-21T09:10:09.453Z,25.94
2019-04-21T09:11:06.949Z,26.09
2019-04-21T09:12:10.915Z,26.21
2019-04-21T09:13:07.437Z,26.51
2019-04-21T09:14:07.060Z,26.79
2019-04-21T09:15:08.390Z,26.86
2019-04-21T09:16:06.561Z,27.01
2019-04-21T09:17:01.676Z,26.90
2019-04-21T09:18:04.858Z,27.05
2019-04-21T09:19:04.468Z,26.56
2019-04-21T09:20:13.469Z,26.46
2019-04-21T09:21:11.343Z,26.16
2019-04-21T09:22:07.038Z,26.38
2019-04-21T09:23:06.724Z,25.96
2019-04-21T09:24:11.604Z,26.27
2019-04-21T09:25:17.304Z,25.91
2019-04-21T09:26:07.353Z,24.67
2019-04-21T09:27:07.110Z,24.02
2019-04-21T09:28:08.858Z,24.24
2019-04-21T09:29:03.426Z,24.67
2019-04-21T09:29:54.015Z,25.14
2019-04-21T09:30:57.294Z,25.49
2019-04-21T09:31:51.715Z,25.64
2019-04-21T09:32:53.039Z,25.22
2019-04-21T09:33:51.983Z,25.60
2019-04-21T09:34:50.669Z,25.91
2019-04-21T09:35:54.606Z,26.28
2019-04-21T09:36:53.131Z,26.61
2019-04-21T09:37:55.286Z,26.79
2019-04-21T09:38:58.690Z,27.03
2019-04-21T09:39:52.106Z,27.01
2019-04-21T09:40:51.359Z,27.12
2019-04-21T09:41:49.883Z,27.31
2019-04-21T09:42:56.893Z,27.46
2019-04-21T09:43:52.136Z,27.27
2019-04-21T09:44:53.346Z,27.25
2019-04-21T09:45:49.364Z,27.24
2019-04-21T09:46:54.008Z,26.98
2019-04-21T09:47:57.189Z,26.44
2019-04-21T09:48:55.417Z,26.69
2019-04-21T09:49:47.762Z,26.32
2019-04-21T09:50:48.041Z,26.42
2019-04-21T09:51:48.279Z,26.71
2019-04-21T09:52:54.757Z,27.18
2019-04-21T09:53:56.494Z,27.48
2019-04-21T09:54:56.610Z,27.55
2019-04-21T09:55:54.207Z,27.30
2019-04-21T09:56:57.133Z,27.13
2019-04-21T09:57:53.562Z,27.11
2019-04-21T09:58:51.686Z,27.30
2019-04-21T09:59:57.080Z,27.52
2019-04-21T10:01:00.043Z,27.02
2019-04-21T10:01:59.179Z,27.03
2019-04-21T10:02:56.784Z,26.73
2019-04-21T10:03:51.056Z,26.16
2019-04-21T10:04:48.187Z,25.93
2019-04-21T10:05:47.576Z,26.03
2019-04-21T10:06:47.614Z,26.09
2019-04-21T10:07:46.600Z,26.09
2019-04-21T10:08:50.371Z,26.42
2019-04-21T10:09:47.777Z,26.57
2019-04-21T10:10:46.855Z,26.83
2019-04-21T10:11:46.339Z,26.76
2019-04-21T10:12:47.685Z,26.49
2019-04-21T10:13:46.357Z,26.47
2019-04-21T10:14:47.272Z,26.21
2019-04-21T10:15:46.306Z,26.23
2019-04-21T10:16:46.017Z,25.91
2019-04-21T10:17:47.346Z,26.09
2019-04-21T10:18:46.126Z,26.09
2019-04-21T10:19:46.365Z,26.51
2019-04-21T10:20:46.903Z,26.56
2019-04-21T10:21:46.589Z,26.86
2019-04-21T10:22:46.770Z,27.15
2019-04-21T10:23:45.755Z,26.54
2019-04-21T10:24:46.623Z,26.44
2019-04-21T10:25:46.367Z,26.56
2019-04-21T10:26:53.468Z,26.28
2019-04-21T10:27:45.437Z,26.71
2019-04-21T10:28:46.774Z,27.06
2019-04-21T10:29:46.775Z,26.90
2019-04-21T10:30:45.123Z,26.73
2019-04-21T10:31:45.114Z,26.83
2019-04-21T10:32:46.040Z,27.18
2019-04-21T10:33:46.169Z,27.20
2019-04-21T10:34:52.836Z,26.69
2019-04-21T10:35:44.781Z,26.84
2019-04-21T10:36:44.905Z,26.76
2019-04-21T10:37:56.345Z,26.65
2019-04-21T10:38:48.730Z,26.87
2019-04-21T10:39:45.351Z,26.69
2019-04-21T10:40:45.558Z,26.75
2019-04-21T10:41:45.688Z,26.79
2019-04-21T10:42:44.312Z,26.51
2019-04-21T10:43:45.178Z,26.53
2019-04-21T10:44:45.197Z,26.23
2019-04-21T10:45:44.216Z,25.86
2019-04-21T10:46:46.691Z,26.19
2019-04-21T10:47:45.010Z,26.41
2019-04-21T10:48:43.911Z,26.68
2019-04-21T10:49:50.868Z,26.69
2019-04-21T10:50:45.195Z,26.53
2019-04-21T10:51:43.814Z,26.54
2019-04-21T10:52:44.817Z,26.29
2019-04-21T10:53:45.249Z,26.51
2019-04-21T10:55:10.100Z,26.86
2019-04-21T10:55:56.681Z,27.25
2019-04-21T10:56:44.444Z,27.02
2019-04-21T10:57:44.306Z,26.96
2019-04-21T10:58:44.490Z,26.69
2019-04-21T10:59:48.814Z,27.02
2019-04-21T11:00:43.991Z,27.25
2019-04-21T11:01:43.163Z,26.88
2019-04-21T11:02:43.353Z,26.88
2019-04-21T11:03:44.902Z,27.05
2019-04-21T11:04:51.104Z,26.68
2019-04-21T11:05:42.936Z,26.69
2019-04-21T11:06:42.723Z,27.03
2019-04-21T11:07:58.941Z,27.09
2019-04-21T11:08:45.711Z,27.21
2019-04-21T11:09:42.605Z,27.30
2019-04-21T11:10:43.705Z,26.96
2019-04-21T11:11:51.585Z,26.84
2019-04-21T11:12:43.164Z,26.75
2019-04-21T11:13:42.263Z,26.71
2019-04-21T11:14:43.107Z,26.21
2019-04-21T11:15:43.156Z,26.20
2019-04-21T11:16:43.346Z,26.39
2019-04-21T11:17:43.519Z,26.53
2019-04-21T11:18:42.208Z,26.24
2019-04-21T11:19:43.136Z,26.23
2019-04-21T11:20:42.782Z,26.13
2019-04-21T11:21:42.897Z,26.16
2019-04-21T11:22:41.756Z,26.31
2019-04-21T11:23:41.596Z,26.12
2019-04-21T11:24:42.911Z,26.06
2019-04-21T11:25:42.166Z,26.01
2019-04-21T11:26:42.199Z,26.32
2019-04-21T11:27:44.838Z,26.65
2019-04-21T11:28:41.273Z,26.54
2019-04-21T11:29:41.521Z,27.03
2019-04-21T11:30:42.345Z,27.06
2019-04-21T11:31:41.122Z,27.43
2019-04-21T11:32:43.094Z,27.72
2019-04-21T11:33:41.034Z,27.86
2019-04-21T11:34:41.106Z,27.84
2019-04-21T11:35:41.362Z,27.55
2019-04-21T11:36:40.745Z,27.08
2019-04-21T11:37:42.048Z,26.90
2019-04-21T11:38:57.117Z,27.08
2019-04-21T11:39:51.219Z,26.81
2019-04-21T11:40:40.488Z,26.98
2019-04-21T11:41:41.549Z,27.08
2019-04-21T11:42:41.754Z,27.03
2019-04-21T11:43:41.321Z,27.02
2019-04-21T11:44:41.585Z,27.27
2019-04-21T11:45:40.271Z,27.34
2019-04-21T11:46:40.380Z,27.48
2019-04-21T11:47:40.672Z,27.31
2019-04-21T11:48:40.076Z,27.59
2019-04-21T11:49:41.079Z,27.62
2019-04-21T11:50:41.244Z,27.86
2019-04-21T11:51:40.773Z,27.74
2019-04-21T11:52:40.854Z,27.96
2019-04-21T11:53:40.999Z,28.13
2019-04-21T11:54:40.650Z,28.28
2019-04-21T11:55:43.605Z,28.48
2019-04-21T11:56:39.417Z,28.61
2019-04-21T11:57:42.783Z,28.74
2019-04-21T11:58:39.546Z,28.88
2019-04-21T11:59:39.646Z,28.91
2019-04-21T12:00:39.927Z,29.02
2019-04-21T12:01:39.439Z,28.98
2019-04-21T12:02:39.563Z,29.11
2019-04-21T12:03:39.970Z,29.15
2019-04-21T12:04:39.271Z,29.18
2019-04-21T12:05:41.830Z,28.43
2019-04-21T12:06:44.433Z,28.43
2019-04-21T12:07:38.703Z,28.64
2019-04-21T12:08:43.972Z,28.24
2019-04-21T12:09:39.577Z,27.43
2019-04-21T12:10:41.831Z,27.21
2019-04-21T12:11:41.032Z,27.43
2019-04-21T12:12:39.260Z,27.71
2019-04-21T12:13:38.330Z,27.66
2019-04-21T12:14:39.593Z,27.86
2019-04-21T12:15:38.926Z,27.65
2019-04-21T12:16:39.154Z,27.87
2019-04-21T12:17:39.439Z,27.46
2019-04-21T12:18:38.806Z,27.62
2019-04-21T12:19:38.767Z,27.87
2019-04-21T12:20:37.865Z,27.80
2019-04-21T12:21:50.532Z,27.88
2019-04-21T12:22:38.983Z,28.05
2019-04-21T12:23:38.479Z,28.54
2019-04-21T12:24:38.133Z,28.80
2019-04-21T12:25:38.926Z,28.82
2019-04-21T12:26:37.947Z,28.62
2019-04-21T12:27:38.030Z,28.61
2019-04-21T12:28:37.614Z,28.70
2019-04-21T12:29:37.791Z,28.79
2019-04-21T12:30:37.763Z,29.08
2019-04-21T12:31:37.158Z,28.74
2019-04-21T12:32:38.128Z,28.91
2019-04-21T12:33:38.136Z,29.07
2019-04-21T12:34:36.958Z,28.73
2019-04-21T12:35:37.747Z,28.62
2019-04-21T12:36:38.026Z,28.08
2019-04-21T12:37:37.149Z,28.14
2019-04-21T12:38:43.689Z,27.78
2019-04-21T12:39:36.927Z,27.99
2019-04-21T12:40:36.775Z,28.23
2019-04-21T12:41:36.521Z,28.54
2019-04-21T12:42:38.851Z,28.69
2019-04-21T12:43:36.965Z,28.55
2019-04-21T12:44:37.178Z,28.91
2019-04-21T12:45:36.250Z,29.12
2019-04-21T12:46:36.195Z,29.32
2019-04-21T12:47:36.120Z,29.25
2019-04-21T12:48:36.042Z,29.17
2019-04-21T12:49:36.004Z,29.27
2019-04-21T12:50:36.053Z,29.36
2019-04-21T12:51:36.012Z,29.12
2019-04-21T12:52:36.003Z,29.17
2019-04-21T12:53:35.974Z,29.17
2019-04-21T12:54:35.883Z,29.05
2019-04-21T12:55:40.614Z,29.03
2019-04-21T12:56:35.746Z,29.14
2019-04-21T12:57:35.469Z,29.10
2019-04-21T12:58:35.407Z,28.74
2019-04-21T12:59:36.331Z,28.82
2019-04-21T13:00:36.672Z,29.07
2019-04-21T13:01:35.230Z,29.17
2019-04-21T13:02:35.824Z,29.33
2019-04-21T13:03:35.072Z,29.33
2019-04-21T13:04:35.784Z,29.54
2019-04-21T13:05:35.787Z,29.39
2019-04-21T13:06:34.892Z,29.54
2019-04-21T13:07:35.422Z,29.57
2019-04-21T13:08:45.634Z,29.47
2019-04-21T13:09:36.128Z,28.80
2019-04-21T13:10:35.943Z,28.67
2019-04-21T13:11:35.073Z,28.48
2019-04-21T13:12:35.274Z,28.57
2019-04-21T13:13:35.627Z,28.51
2019-04-21T13:14:35.761Z,27.88
2019-04-21T13:15:35.496Z,27.66
2019-04-21T13:16:34.250Z,27.84
2019-04-21T13:17:35.297Z,27.76
2019-04-21T13:18:35.071Z,27.88
2019-04-21T13:19:34.033Z,27.84
2019-04-21T13:20:34.216Z,28.02
2019-04-21T13:21:34.263Z,28.15
2019-04-21T13:22:34.190Z,28.62
2019-04-21T13:23:34.977Z,28.83
2019-04-21T13:24:33.756Z,29.14
2019-04-21T13:25:33.914Z,29.21
2019-04-21T13:26:42.930Z,29.39
2019-04-21T13:27:34.577Z,29.58
2019-04-21T13:28:34.562Z,29.85
2019-04-21T13:29:34.451Z,30.04
2019-04-21T13:30:33.301Z,30.04
2019-04-21T13:31:34.211Z,30.18
2019-04-21T13:32:33.314Z,30.18
2019-04-21T13:33:33.649Z,30.10
2019-04-21T13:34:33.791Z,29.79
2019-04-21T13:35:33.240Z,29.36
2019-04-21T13:36:33.775Z,29.17
2019-04-21T13:37:33.284Z,29.08
2019-04-21T13:38:37.766Z,28.88
2019-04-21T13:39:57.119Z,28.95
2019-04-21T13:40:49.998Z,28.98
2019-04-21T13:41:47.363Z,29.12
2019-04-21T13:42:40.231Z,29.15
2019-04-21T13:43:32.971Z,29.33
2019-04-21T13:44:33.083Z,29.39
2019-04-21T13:45:32.330Z,29.23
2019-04-21T13:46:32.266Z,29.14
2019-04-21T13:47:32.490Z,29.18
2019-04-21T13:48:32.748Z,29.02
2019-04-21T13:49:32.082Z,28.76
2019-04-21T13:50:33.215Z,28.79
2019-04-21T13:51:31.946Z,28.64
2019-04-21T13:52:33.173Z,28.65
2019-04-21T13:53:33.095Z,28.67
2019-04-21T13:54:31.730Z,28.65
2019-04-21T13:55:31.929Z,28.69
2019-04-21T13:56:32.337Z,28.52
2019-04-21T13:57:32.495Z,28.54
2019-04-21T13:58:32.650Z,28.67
2019-04-21T13:59:31.940Z,28.52
2019-04-21T14:00:31.795Z,28.43
2019-04-21T14:01:31.796Z,28.57
2019-04-21T14:02:31.205Z,28.23
2019-04-21T14:03:31.407Z,28.25